sensor_id;sensor_type;location;lat;lon;timestamp;P1;durP1;ratioP1;P2;durP2;ratioP2
70406;SDS011;57821;52.202;0.154;2022-10-18T00:00:46;11.50;;;3.13;;
70406;SDS011;57821;52.202;0.154;2022-10-18T00:03:13;13.52;;;3.20;;
70406;SDS011;57821;52.202;0.154;2022-10-18T00:05:39;13.23;;;3.17;;
70406;SDS011;57821;52.202;0.154;2022-10-18T00:08:06;12.10;;;3.22;;
70406;SDS011;57821;52.202;0.154;2022-10-18T00:10:32;15.70;;;3.40;;
70406;SDS011;57821;52.202;0.154;2022-10-18T00:12:59;18.60;;;3.75;;
70406;SDS011;57821;52.202;0.154;2022-10-18T00:15:25;12.38;;;3.03;;
70406;SDS011;57821;52.202;0.154;2022-10-18T00:17:52;9.07;;;2.65;;
70406;SDS011;57821;52.202;0.154;2022-10-18T00:20:18;12.27;;;3.42;;
70406;SDS011;57821;52.202;0.154;2022-10-18T00:22:45;11.60;;;3.03;;
70406;SDS011;57821;52.202;0.154;2022-10-18T00:25:11;10.63;;;2.80;;
70406;SDS011;57821;52.202;0.154;2022-10-18T00:27:40;10.68;;;2.70;;
70406;SDS011;57821;52.202;0.154;2022-10-18T00:30:06;12.75;;;2.97;;
70406;SDS011;57821;52.202;0.154;2022-10-18T00:32:40;18.48;;;4.75;;
70406;SDS011;57821;52.202;0.154;2022-10-18T00:35:07;12.05;;;2.55;;
70406;SDS011;57821;52.202;0.154;2022-10-18T00:37:34;10.82;;;3.13;;
70406;SDS011;57821;52.202;0.154;2022-10-18T00:40:01;10.48;;;3.42;;
70406;SDS011;57821;52.202;0.154;2022-10-18T00:42:29;10.80;;;3.05;;
70406;SDS011;57821;52.202;0.154;2022-10-18T00:45:12;14.25;;;4.20;;
70406;SDS011;57821;52.202;0.154;2022-10-18T00:47:42;10.60;;;2.88;;
70406;SDS011;57821;52.202;0.154;2022-10-18T00:50:13;10.63;;;2.63;;
70406;SDS011;57821;52.202;0.154;2022-10-18T00:52:41;12.05;;;2.83;;
70406;SDS011;57821;52.202;0.154;2022-10-18T00:55:12;12.88;;;3.60;;
70406;SDS011;57821;52.202;0.154;2022-10-18T00:57:39;11.07;;;3.22;;
70406;SDS011;57821;52.202;0.154;2022-10-18T01:00:08;14.77;;;3.33;;
70406;SDS011;57821;52.202;0.154;2022-10-18T01:02:36;14.68;;;3.30;;
70406;SDS011;57821;52.202;0.154;2022-10-18T01:05:04;13.75;;;3.35;;
70406;SDS011;57821;52.202;0.154;2022-10-18T01:07:37;12.45;;;3.60;;
70406;SDS011;57821;52.202;0.154;2022-10-18T01:10:17;14.02;;;3.67;;
70406;SDS011;57821;52.202;0.154;2022-10-18T01:15:57;12.73;;;4.25;;
70406;SDS011;57821;52.202;0.154;2022-10-18T01:29:59;12.60;;;3.63;;
70406;SDS011;57821;52.202;0.154;2022-10-18T01:32:48;13.32;;;3.90;;
70406;SDS011;57821;52.202;0.154;2022-10-18T01:35:19;13.65;;;3.92;;
70406;SDS011;57821;52.202;0.154;2022-10-18T01:37:52;13.52;;;3.00;;
70406;SDS011;57821;52.202;0.154;2022-10-18T01:40:21;11.55;;;3.17;;
70406;SDS011;57821;52.202;0.154;2022-10-18T01:42:49;13.13;;;3.28;;
70406;SDS011;57821;52.202;0.154;2022-10-18T01:45:16;14.70;;;3.17;;
70406;SDS011;57821;52.202;0.154;2022-10-18T01:47:45;11.98;;;3.38;;
70406;SDS011;57821;52.202;0.154;2022-10-18T01:50:12;11.18;;;3.33;;
70406;SDS011;57821;52.202;0.154;2022-10-18T01:52:48;15.45;;;3.50;;
70406;SDS011;57821;52.202;0.154;2022-10-18T01:55:15;14.85;;;3.80;;
70406;SDS011;57821;52.202;0.154;2022-10-18T02:00:48;13.48;;;3.58;;
70406;SDS011;57821;52.202;0.154;2022-10-18T02:03:26;10.80;;;3.28;;
70406;SDS011;57821;52.202;0.154;2022-10-18T02:06:03;12.75;;;4.05;;
70406;SDS011;57821;52.202;0.154;2022-10-18T02:08:51;14.00;;;3.55;;
70406;SDS011;57821;52.202;0.154;2022-10-18T02:11:23;14.23;;;3.13;;
70406;SDS011;57821;52.202;0.154;2022-10-18T02:18:54;14.73;;;3.15;;
70406;SDS011;57821;52.202;0.154;2022-10-18T02:21:41;12.18;;;3.08;;
70406;SDS011;57821;52.202;0.154;2022-10-18T02:24:10;10.25;;;3.13;;
70406;SDS011;57821;52.202;0.154;2022-10-18T02:26:39;12.55;;;3.17;;
70406;SDS011;57821;52.202;0.154;2022-10-18T02:29:06;11.18;;;3.60;;
70406;SDS011;57821;52.202;0.154;2022-10-18T02:31:54;11.70;;;3.10;;
70406;SDS011;57821;52.202;0.154;2022-10-18T02:34:36;13.35;;;4.18;;
70406;SDS011;57821;52.202;0.154;2022-10-18T02:37:08;14.07;;;3.15;;
70406;SDS011;57821;52.202;0.154;2022-10-18T02:39:37;12.20;;;3.03;;
70406;SDS011;57821;52.202;0.154;2022-10-18T02:42:08;16.00;;;3.35;;
70406;SDS011;57821;52.202;0.154;2022-10-18T02:44:36;13.70;;;3.42;;
70406;SDS011;57821;52.202;0.154;2022-10-18T02:47:04;10.02;;;2.90;;
70406;SDS011;57821;52.202;0.154;2022-10-18T02:49:31;11.68;;;2.97;;
70406;SDS011;57821;52.202;0.154;2022-10-18T02:51:58;9.27;;;3.25;;
70406;SDS011;57821;52.202;0.154;2022-10-18T02:54:24;11.05;;;3.80;;
70406;SDS011;57821;52.202;0.154;2022-10-18T02:56:51;11.77;;;3.03;;
70406;SDS011;57821;52.202;0.154;2022-10-18T02:59:17;13.70;;;3.88;;
70406;SDS011;57821;52.202;0.154;2022-10-18T03:01:44;12.63;;;4.90;;
70406;SDS011;57821;52.202;0.154;2022-10-18T03:04:10;12.15;;;4.45;;
70406;SDS011;57821;52.202;0.154;2022-10-18T03:06:37;13.52;;;3.65;;
70406;SDS011;57821;52.202;0.154;2022-10-18T03:09:04;14.80;;;3.97;;
70406;SDS011;57821;52.202;0.154;2022-10-18T03:11:31;15.27;;;3.70;;
70406;SDS011;57821;52.202;0.154;2022-10-18T03:13:57;13.00;;;3.60;;
70406;SDS011;57821;52.202;0.154;2022-10-18T03:16:24;17.58;;;4.18;;
70406;SDS011;57821;52.202;0.154;2022-10-18T03:18:50;14.05;;;4.20;;
70406;SDS011;57821;52.202;0.154;2022-10-18T03:21:17;15.40;;;3.85;;
70406;SDS011;57821;52.202;0.154;2022-10-18T03:23:43;11.20;;;3.17;;
70406;SDS011;57821;52.202;0.154;2022-10-18T03:26:10;10.65;;;4.03;;
70406;SDS011;57821;52.202;0.154;2022-10-18T03:28:36;15.23;;;3.80;;
70406;SDS011;57821;52.202;0.154;2022-10-18T03:31:03;14.32;;;3.58;;
70406;SDS011;57821;52.202;0.154;2022-10-18T03:33:30;15.48;;;3.90;;
70406;SDS011;57821;52.202;0.154;2022-10-18T03:35:57;12.48;;;3.90;;
70406;SDS011;57821;52.202;0.154;2022-10-18T03:38:23;12.35;;;3.78;;
70406;SDS011;57821;52.202;0.154;2022-10-18T03:40:50;12.20;;;4.07;;
70406;SDS011;57821;52.202;0.154;2022-10-18T03:43:16;12.70;;;3.90;;
70406;SDS011;57821;52.202;0.154;2022-10-18T03:45:43;11.77;;;3.38;;
70406;SDS011;57821;52.202;0.154;2022-10-18T03:48:10;13.68;;;4.22;;
70406;SDS011;57821;52.202;0.154;2022-10-18T03:50:37;15.32;;;3.90;;
70406;SDS011;57821;52.202;0.154;2022-10-18T03:53:03;14.95;;;3.95;;
70406;SDS011;57821;52.202;0.154;2022-10-18T03:55:30;11.40;;;4.03;;
70406;SDS011;57821;52.202;0.154;2022-10-18T03:57:57;11.00;;;3.65;;
70406;SDS011;57821;52.202;0.154;2022-10-18T04:00:23;13.40;;;4.07;;
70406;SDS011;57821;52.202;0.154;2022-10-18T04:02:50;15.88;;;3.70;;
70406;SDS011;57821;52.202;0.154;2022-10-18T04:05:21;13.48;;;3.60;;
70406;SDS011;57821;52.202;0.154;2022-10-18T04:07:47;10.32;;;2.97;;
70406;SDS011;57821;52.202;0.154;2022-10-18T04:10:14;11.98;;;4.32;;
70406;SDS011;57821;52.202;0.154;2022-10-18T04:12:41;9.55;;;4.00;;
70406;SDS011;57821;52.202;0.154;2022-10-18T04:15:07;11.57;;;3.63;;
70406;SDS011;57821;52.202;0.154;2022-10-18T04:17:34;14.50;;;4.38;;
70406;SDS011;57821;52.202;0.154;2022-10-18T04:20:01;10.73;;;3.83;;
70406;SDS011;57821;52.202;0.154;2022-10-18T04:22:27;19.25;;;3.92;;
70406;SDS011;57821;52.202;0.154;2022-10-18T04:24:54;13.65;;;4.53;;
70406;SDS011;57821;52.202;0.154;2022-10-18T04:27:20;13.57;;;3.83;;
70406;SDS011;57821;52.202;0.154;2022-10-18T04:29:47;9.07;;;3.22;;
70406;SDS011;57821;52.202;0.154;2022-10-18T04:32:13;12.00;;;3.70;;
70406;SDS011;57821;52.202;0.154;2022-10-18T04:34:40;13.70;;;3.72;;
70406;SDS011;57821;52.202;0.154;2022-10-18T04:37:09;15.80;;;3.70;;
70406;SDS011;57821;52.202;0.154;2022-10-18T04:39:36;12.20;;;3.55;;
70406;SDS011;57821;52.202;0.154;2022-10-18T04:42:02;11.70;;;3.28;;
70406;SDS011;57821;52.202;0.154;2022-10-18T04:44:29;13.00;;;3.40;;
70406;SDS011;57821;52.202;0.154;2022-10-18T04:46:55;9.75;;;2.53;;
70406;SDS011;57821;52.202;0.154;2022-10-18T04:49:22;13.00;;;4.30;;
70406;SDS011;57821;52.202;0.154;2022-10-18T04:51:48;10.73;;;3.03;;
70406;SDS011;57821;52.202;0.154;2022-10-18T04:54:15;16.60;;;3.47;;
70406;SDS011;57821;52.202;0.154;2022-10-18T04:56:41;7.35;;;2.83;;
70406;SDS011;57821;52.202;0.154;2022-10-18T04:59:08;16.13;;;2.90;;
70406;SDS011;57821;52.202;0.154;2022-10-18T05:01:34;12.00;;;2.67;;
70406;SDS011;57821;52.202;0.154;2022-10-18T05:04:01;11.95;;;2.88;;
70406;SDS011;57821;52.202;0.154;2022-10-18T05:06:27;19.23;;;3.30;;
70406;SDS011;57821;52.202;0.154;2022-10-18T05:08:54;11.55;;;3.58;;
70406;SDS011;57821;52.202;0.154;2022-10-18T05:11:20;12.32;;;3.08;;
70406;SDS011;57821;52.202;0.154;2022-10-18T05:13:47;12.15;;;3.38;;
70406;SDS011;57821;52.202;0.154;2022-10-18T05:16:16;10.27;;;3.35;;
70406;SDS011;57821;52.202;0.154;2022-10-18T05:18:43;11.52;;;3.33;;
70406;SDS011;57821;52.202;0.154;2022-10-18T05:21:09;14.90;;;3.88;;
70406;SDS011;57821;52.202;0.154;2022-10-18T05:23:36;15.07;;;4.07;;
70406;SDS011;57821;52.202;0.154;2022-10-18T05:26:05;13.50;;;3.65;;
70406;SDS011;57821;52.202;0.154;2022-10-18T05:28:32;14.02;;;4.00;;
70406;SDS011;57821;52.202;0.154;2022-10-18T05:31:05;10.35;;;3.75;;
70406;SDS011;57821;52.202;0.154;2022-10-18T05:33:34;11.70;;;3.97;;
70406;SDS011;57821;52.202;0.154;2022-10-18T05:36:01;11.40;;;3.55;;
70406;SDS011;57821;52.202;0.154;2022-10-18T05:38:28;8.95;;;3.50;;
70406;SDS011;57821;52.202;0.154;2022-10-18T05:40:54;9.10;;;3.55;;
70406;SDS011;57821;52.202;0.154;2022-10-18T05:43:20;11.02;;;3.42;;
70406;SDS011;57821;52.202;0.154;2022-10-18T05:45:50;8.95;;;3.15;;
70406;SDS011;57821;52.202;0.154;2022-10-18T05:48:17;14.07;;;3.53;;
70406;SDS011;57821;52.202;0.154;2022-10-18T05:50:44;11.07;;;3.83;;
70406;SDS011;57821;52.202;0.154;2022-10-18T05:53:10;12.95;;;3.72;;
70406;SDS011;57821;52.202;0.154;2022-10-18T05:56:00;12.82;;;3.42;;
70406;SDS011;57821;52.202;0.154;2022-10-18T05:58:27;17.30;;;3.58;;
70406;SDS011;57821;52.202;0.154;2022-10-18T06:00:56;14.52;;;3.67;;
70406;SDS011;57821;52.202;0.154;2022-10-18T06:03:24;10.88;;;3.70;;
70406;SDS011;57821;52.202;0.154;2022-10-18T06:05:50;11.13;;;3.90;;
70406;SDS011;57821;52.202;0.154;2022-10-18T06:08:17;12.13;;;3.97;;
70406;SDS011;57821;52.202;0.154;2022-10-18T06:10:43;10.32;;;4.10;;
70406;SDS011;57821;52.202;0.154;2022-10-18T06:13:10;15.27;;;4.10;;
70406;SDS011;57821;52.202;0.154;2022-10-18T06:15:36;13.05;;;5.30;;
70406;SDS011;57821;52.202;0.154;2022-10-18T06:18:02;17.27;;;4.70;;
70406;SDS011;57821;52.202;0.154;2022-10-18T06:20:29;10.73;;;4.30;;
70406;SDS011;57821;52.202;0.154;2022-10-18T06:22:55;12.90;;;5.07;;
70406;SDS011;57821;52.202;0.154;2022-10-18T06:25:22;11.85;;;4.80;;
70406;SDS011;57821;52.202;0.154;2022-10-18T06:27:48;11.13;;;4.50;;
70406;SDS011;57821;52.202;0.154;2022-10-18T06:30:15;9.93;;;4.35;;
70406;SDS011;57821;52.202;0.154;2022-10-18T06:32:41;14.98;;;4.75;;
70406;SDS011;57821;52.202;0.154;2022-10-18T06:35:08;11.55;;;4.50;;
70406;SDS011;57821;52.202;0.154;2022-10-18T06:37:34;12.27;;;4.15;;
70406;SDS011;57821;52.202;0.154;2022-10-18T06:40:01;13.88;;;5.15;;
70406;SDS011;57821;52.202;0.154;2022-10-18T06:42:28;15.95;;;5.13;;
70406;SDS011;57821;52.202;0.154;2022-10-18T06:44:54;10.77;;;4.20;;
70406;SDS011;57821;52.202;0.154;2022-10-18T06:47:21;11.75;;;4.40;;
70406;SDS011;57821;52.202;0.154;2022-10-18T06:49:48;13.02;;;4.45;;
70406;SDS011;57821;52.202;0.154;2022-10-18T06:52:17;10.63;;;4.63;;
70406;SDS011;57821;52.202;0.154;2022-10-18T06:54:43;13.95;;;5.07;;
70406;SDS011;57821;52.202;0.154;2022-10-18T06:57:10;12.57;;;4.13;;
70406;SDS011;57821;52.202;0.154;2022-10-18T06:59:37;12.15;;;5.10;;
70406;SDS011;57821;52.202;0.154;2022-10-18T07:02:03;8.95;;;4.05;;
70406;SDS011;57821;52.202;0.154;2022-10-18T07:04:30;11.75;;;4.47;;
70406;SDS011;57821;52.202;0.154;2022-10-18T07:06:56;11.45;;;4.28;;
70406;SDS011;57821;52.202;0.154;2022-10-18T07:09:23;10.43;;;4.10;;
70406;SDS011;57821;52.202;0.154;2022-10-18T07:11:49;12.48;;;4.32;;
70406;SDS011;57821;52.202;0.154;2022-10-18T07:14:16;12.00;;;4.88;;
70406;SDS011;57821;52.202;0.154;2022-10-18T07:16:42;9.82;;;4.55;;
70406;SDS011;57821;52.202;0.154;2022-10-18T07:19:09;12.95;;;5.28;;
70406;SDS011;57821;52.202;0.154;2022-10-18T07:21:35;13.43;;;5.88;;
70406;SDS011;57821;52.202;0.154;2022-10-18T07:24:02;14.52;;;5.50;;
70406;SDS011;57821;52.202;0.154;2022-10-18T07:26:29;11.27;;;4.80;;
70406;SDS011;57821;52.202;0.154;2022-10-18T07:29:06;13.85;;;5.15;;
70406;SDS011;57821;52.202;0.154;2022-10-18T07:31:35;9.40;;;4.63;;
70406;SDS011;57821;52.202;0.154;2022-10-18T07:34:03;14.25;;;4.75;;
70406;SDS011;57821;52.202;0.154;2022-10-18T07:36:30;15.90;;;4.88;;
70406;SDS011;57821;52.202;0.154;2022-10-18T07:38:57;16.75;;;5.43;;
70406;SDS011;57821;52.202;0.154;2022-10-18T07:41:23;9.18;;;4.40;;
70406;SDS011;57821;52.202;0.154;2022-10-18T07:43:51;12.18;;;4.25;;
70406;SDS011;57821;52.202;0.154;2022-10-18T07:46:19;10.75;;;4.43;;
70406;SDS011;57821;52.202;0.154;2022-10-18T07:48:47;11.48;;;5.07;;
70406;SDS011;57821;52.202;0.154;2022-10-18T07:51:13;9.48;;;3.60;;
70406;SDS011;57821;52.202;0.154;2022-10-18T07:53:40;10.52;;;3.75;;
70406;SDS011;57821;52.202;0.154;2022-10-18T07:56:07;10.73;;;4.47;;
70406;SDS011;57821;52.202;0.154;2022-10-18T07:58:36;8.45;;;3.92;;
70406;SDS011;57821;52.202;0.154;2022-10-18T08:01:03;12.35;;;4.60;;
70406;SDS011;57821;52.202;0.154;2022-10-18T08:03:31;8.70;;;4.07;;
70406;SDS011;57821;52.202;0.154;2022-10-18T08:05:58;8.88;;;3.60;;
70406;SDS011;57821;52.202;0.154;2022-10-18T08:08:25;6.00;;;3.28;;
70406;SDS011;57821;52.202;0.154;2022-10-18T08:10:52;8.55;;;3.63;;
70406;SDS011;57821;52.202;0.154;2022-10-18T08:13:18;8.18;;;3.50;;
70406;SDS011;57821;52.202;0.154;2022-10-18T08:15:46;9.02;;;3.83;;
70406;SDS011;57821;52.202;0.154;2022-10-18T08:18:13;9.63;;;3.65;;
70406;SDS011;57821;52.202;0.154;2022-10-18T08:20:43;11.23;;;3.85;;
70406;SDS011;57821;52.202;0.154;2022-10-18T08:23:10;11.70;;;4.57;;
70406;SDS011;57821;52.202;0.154;2022-10-18T08:25:37;12.70;;;4.43;;
70406;SDS011;57821;52.202;0.154;2022-10-18T08:28:05;9.52;;;4.32;;
70406;SDS011;57821;52.202;0.154;2022-10-18T08:30:33;9.38;;;3.92;;
70406;SDS011;57821;52.202;0.154;2022-10-18T08:33:00;12.18;;;3.85;;
70406;SDS011;57821;52.202;0.154;2022-10-18T08:35:27;10.50;;;3.80;;
70406;SDS011;57821;52.202;0.154;2022-10-18T08:37:54;9.82;;;4.50;;
70406;SDS011;57821;52.202;0.154;2022-10-18T08:40:20;10.65;;;4.65;;
70406;SDS011;57821;52.202;0.154;2022-10-18T08:42:57;10.15;;;4.97;;
70406;SDS011;57821;52.202;0.154;2022-10-18T08:45:46;13.13;;;5.55;;
70406;SDS011;57821;52.202;0.154;2022-10-18T08:48:34;10.40;;;4.63;;
70406;SDS011;57821;52.202;0.154;2022-10-18T08:51:05;11.98;;;4.60;;
70406;SDS011;57821;52.202;0.154;2022-10-18T08:53:50;9.38;;;4.05;;
70406;SDS011;57821;52.202;0.154;2022-10-18T08:56:23;14.68;;;4.53;;
70406;SDS011;57821;52.202;0.154;2022-10-18T08:58:50;9.35;;;3.47;;
70406;SDS011;57821;52.202;0.154;2022-10-18T09:04:20;7.43;;;2.95;;
70406;SDS011;57821;52.202;0.154;2022-10-18T09:10:24;7.80;;;2.50;;
70406;SDS011;57821;52.202;0.154;2022-10-18T09:15:57;8.80;;;3.40;;
70406;SDS011;57821;52.202;0.154;2022-10-18T09:23:47;9.88;;;2.60;;
70406;SDS011;57821;52.202;0.154;2022-10-18T09:26:21;9.32;;;2.78;;
70406;SDS011;57821;52.202;0.154;2022-10-18T09:36:59;10.80;;;2.92;;
70406;SDS011;57821;52.202;0.154;2022-10-18T09:39:28;11.38;;;2.65;;
70406;SDS011;57821;52.202;0.154;2022-10-18T09:41:58;11.75;;;2.60;;
70406;SDS011;57821;52.202;0.154;2022-10-18T09:47:20;10.65;;;2.60;;
70406;SDS011;57821;52.202;0.154;2022-10-18T09:49:57;9.48;;;2.70;;
70406;SDS011;57821;52.202;0.154;2022-10-18T09:52:34;9.88;;;2.30;;
70406;SDS011;57821;52.202;0.154;2022-10-18T09:55:11;8.82;;;2.50;;
70406;SDS011;57821;52.202;0.154;2022-10-18T09:57:47;12.50;;;2.75;;
70406;SDS011;57821;52.202;0.154;2022-10-18T10:00:23;12.70;;;2.60;;
70406;SDS011;57821;52.202;0.154;2022-10-18T10:02:53;15.38;;;3.42;;
70406;SDS011;57821;52.202;0.154;2022-10-18T10:05:20;10.95;;;2.75;;
70406;SDS011;57821;52.202;0.154;2022-10-18T10:07:47;14.43;;;3.17;;
70406;SDS011;57821;52.202;0.154;2022-10-18T10:10:27;10.85;;;2.60;;
70406;SDS011;57821;52.202;0.154;2022-10-18T10:13:05;10.38;;;2.92;;
70406;SDS011;57821;52.202;0.154;2022-10-18T10:15:44;9.52;;;2.42;;
70406;SDS011;57821;52.202;0.154;2022-10-18T10:18:21;14.32;;;2.85;;
70406;SDS011;57821;52.202;0.154;2022-10-18T10:20:53;12.63;;;2.97;;
70406;SDS011;57821;52.202;0.154;2022-10-18T10:25:52;15.57;;;3.22;;
70406;SDS011;57821;52.202;0.154;2022-10-18T10:28:23;13.05;;;2.95;;
70406;SDS011;57821;52.202;0.154;2022-10-18T10:30:54;14.88;;;2.78;;
70406;SDS011;57821;52.202;0.154;2022-10-18T10:33:58;12.05;;;2.35;;
70406;SDS011;57821;52.202;0.154;2022-10-18T10:36:30;12.45;;;2.15;;
70406;SDS011;57821;52.202;0.154;2022-10-18T10:41:28;9.18;;;1.83;;
70406;SDS011;57821;52.202;0.154;2022-10-18T10:43:55;10.90;;;2.00;;
70406;SDS011;57821;52.202;0.154;2022-10-18T10:46:22;12.32;;;3.13;;
70406;SDS011;57821;52.202;0.154;2022-10-18T10:48:49;11.27;;;2.08;;
70406;SDS011;57821;52.202;0.154;2022-10-18T10:51:39;12.25;;;2.20;;
70406;SDS011;57821;52.202;0.154;2022-10-18T10:54:16;13.65;;;2.47;;
70406;SDS011;57821;52.202;0.154;2022-10-18T10:56:53;8.48;;;1.83;;
70406;SDS011;57821;52.202;0.154;2022-10-18T10:59:19;10.43;;;2.90;;
70406;SDS011;57821;52.202;0.154;2022-10-18T11:01:50;15.30;;;3.97;;
70406;SDS011;57821;52.202;0.154;2022-10-18T11:04:39;18.98;;;4.00;;
70406;SDS011;57821;52.202;0.154;2022-10-18T11:09:53;10.13;;;3.17;;
70406;SDS011;57821;52.202;0.154;2022-10-18T11:16:03;12.13;;;2.38;;
70406;SDS011;57821;52.202;0.154;2022-10-18T11:18:37;9.77;;;2.58;;
70406;SDS011;57821;52.202;0.154;2022-10-18T11:21:10;10.13;;;2.15;;
70406;SDS011;57821;52.202;0.154;2022-10-18T11:23:41;10.48;;;2.35;;
70406;SDS011;57821;52.202;0.154;2022-10-18T11:43:36;11.60;;;1.70;;
70406;SDS011;57821;52.202;0.154;2022-10-18T11:46:16;7.38;;;1.55;;
70406;SDS011;57821;52.202;0.154;2022-10-18T11:51:39;8.95;;;1.45;;
70406;SDS011;57821;52.202;0.154;2022-10-18T11:57:38;11.60;;;1.95;;
70406;SDS011;57821;52.202;0.154;2022-10-18T12:02:59;11.50;;;1.63;;
70406;SDS011;57821;52.202;0.154;2022-10-18T12:05:28;9.80;;;1.30;;
70406;SDS011;57821;52.202;0.154;2022-10-18T12:10:32;8.65;;;1.63;;
70406;SDS011;57821;52.202;0.154;2022-10-18T12:13:22;10.32;;;1.75;;
70406;SDS011;57821;52.202;0.154;2022-10-18T12:16:11;6.20;;;1.20;;
70406;SDS011;57821;52.202;0.154;2022-10-18T12:19:40;7.88;;;1.27;;
70406;SDS011;57821;52.202;0.154;2022-10-18T12:21:56;6.53;;;1.13;;
70406;SDS011;57821;52.202;0.154;2022-10-18T12:24:27;6.03;;;1.13;;
70406;SDS011;57821;52.202;0.154;2022-10-18T12:26:58;13.25;;;1.77;;
70406;SDS011;57821;52.202;0.154;2022-10-18T12:32:21;11.05;;;1.80;;
70406;SDS011;57821;52.202;0.154;2022-10-18T12:34:53;7.50;;;1.50;;
70406;SDS011;57821;52.202;0.154;2022-10-18T12:37:29;9.45;;;2.20;;
70406;SDS011;57821;52.202;0.154;2022-10-18T12:40:14;12.55;;;1.45;;
70406;SDS011;57821;52.202;0.154;2022-10-18T12:42:47;7.60;;;1.35;;
70406;SDS011;57821;52.202;0.154;2022-10-18T12:47:49;12.38;;;2.95;;
70406;SDS011;57821;52.202;0.154;2022-10-18T12:50:27;11.32;;;1.58;;
70406;SDS011;57821;52.202;0.154;2022-10-18T12:53:00;7.90;;;1.10;;
70406;SDS011;57821;52.202;0.154;2022-10-18T12:55:48;8.80;;;1.52;;
70406;SDS011;57821;52.202;0.154;2022-10-18T13:16:11;5.88;;;1.08;;
70406;SDS011;57821;52.202;0.154;2022-10-18T13:18:56;8.45;;;1.17;;
70406;SDS011;57821;52.202;0.154;2022-10-18T13:24:22;10.27;;;2.15;;
70406;SDS011;57821;52.202;0.154;2022-10-18T13:38:16;8.15;;;1.48;;
70406;SDS011;57821;52.202;0.154;2022-10-18T13:41:22;13.80;;;2.03;;
70406;SDS011;57821;52.202;0.154;2022-10-18T13:48:46;7.15;;;1.27;;
70406;SDS011;57821;52.202;0.154;2022-10-18T14:02:28;10.65;;;1.20;;
70406;SDS011;57821;52.202;0.154;2022-10-18T14:19:32;6.53;;;1.00;;
70406;SDS011;57821;52.202;0.154;2022-10-18T14:24:47;6.55;;;1.13;;
70406;SDS011;57821;52.202;0.154;2022-10-18T14:27:18;7.55;;;1.23;;
70406;SDS011;57821;52.202;0.154;2022-10-18T14:29:46;6.80;;;1.10;;
70406;SDS011;57821;52.202;0.154;2022-10-18T14:32:23;7.13;;;1.30;;
70406;SDS011;57821;52.202;0.154;2022-10-18T14:34:52;6.43;;;1.08;;
70406;SDS011;57821;52.202;0.154;2022-10-18T14:37:27;5.63;;;1.00;;
70406;SDS011;57821;52.202;0.154;2022-10-18T14:39:58;8.13;;;1.42;;
70406;SDS011;57821;52.202;0.154;2022-10-18T14:42:25;4.90;;;0.80;;
70406;SDS011;57821;52.202;0.154;2022-10-18T14:44:53;8.15;;;1.40;;
70406;SDS011;57821;52.202;0.154;2022-10-18T14:47:25;6.90;;;1.23;;
70406;SDS011;57821;52.202;0.154;2022-10-18T14:49:53;7.07;;;1.25;;
70406;SDS011;57821;52.202;0.154;2022-10-18T14:52:29;7.22;;;1.60;;
70406;SDS011;57821;52.202;0.154;2022-10-18T14:55:01;10.25;;;2.42;;
70406;SDS011;57821;52.202;0.154;2022-10-18T14:57:32;5.93;;;1.10;;
70406;SDS011;57821;52.202;0.154;2022-10-18T15:00:03;8.05;;;1.30;;
70406;SDS011;57821;52.202;0.154;2022-10-18T15:02:36;6.40;;;1.40;;
70406;SDS011;57821;52.202;0.154;2022-10-18T15:07:31;11.85;;;2.45;;
70406;SDS011;57821;52.202;0.154;2022-10-18T15:09:59;8.80;;;1.50;;
70406;SDS011;57821;52.202;0.154;2022-10-18T15:12:28;7.70;;;1.38;;
70406;SDS011;57821;52.202;0.154;2022-10-18T15:15:16;9.05;;;1.75;;
70406;SDS011;57821;52.202;0.154;2022-10-18T15:17:46;5.63;;;1.17;;
70406;SDS011;57821;52.202;0.154;2022-10-18T15:22:46;9.32;;;1.38;;
70406;SDS011;57821;52.202;0.154;2022-10-18T15:27:57;8.57;;;1.20;;
70406;SDS011;57821;52.202;0.154;2022-10-18T15:30:28;6.30;;;1.15;;
70406;SDS011;57821;52.202;0.154;2022-10-18T15:33:03;7.68;;;1.10;;
70406;SDS011;57821;52.202;0.154;2022-10-18T15:35:33;8.68;;;1.45;;
70406;SDS011;57821;52.202;0.154;2022-10-18T15:38:11;7.38;;;1.25;;
70406;SDS011;57821;52.202;0.154;2022-10-18T15:40:38;4.13;;;1.15;;
70406;SDS011;57821;52.202;0.154;2022-10-18T15:45:48;6.60;;;1.23;;
70406;SDS011;57821;52.202;0.154;2022-10-18T15:48:19;7.75;;;1.55;;
70406;SDS011;57821;52.202;0.154;2022-10-18T15:50:52;6.93;;;1.35;;
70406;SDS011;57821;52.202;0.154;2022-10-18T15:58:46;5.80;;;1.02;;
70406;SDS011;57821;52.202;0.154;2022-10-18T16:01:23;4.07;;;1.05;;
70406;SDS011;57821;52.202;0.154;2022-10-18T16:03:57;7.50;;;1.13;;
70406;SDS011;57821;52.202;0.154;2022-10-18T16:06:26;5.28;;;0.93;;
70406;SDS011;57821;52.202;0.154;2022-10-18T16:08:52;6.60;;;1.10;;
70406;SDS011;57821;52.202;0.154;2022-10-18T16:11:20;6.28;;;0.90;;
70406;SDS011;57821;52.202;0.154;2022-10-18T16:13:51;7.53;;;0.98;;
70406;SDS011;57821;52.202;0.154;2022-10-18T16:16:24;5.60;;;1.02;;
70406;SDS011;57821;52.202;0.154;2022-10-18T16:18:52;7.82;;;2.45;;
70406;SDS011;57821;52.202;0.154;2022-10-18T16:21:22;9.77;;;2.13;;
70406;SDS011;57821;52.202;0.154;2022-10-18T16:23:52;8.02;;;1.20;;
70406;SDS011;57821;52.202;0.154;2022-10-18T16:26:19;6.28;;;1.38;;
70406;SDS011;57821;52.202;0.154;2022-10-18T16:28:47;6.35;;;1.95;;
70406;SDS011;57821;52.202;0.154;2022-10-18T16:31:16;7.95;;;1.13;;
70406;SDS011;57821;52.202;0.154;2022-10-18T16:33:45;11.55;;;1.30;;
70406;SDS011;57821;52.202;0.154;2022-10-18T16:36:15;9.00;;;1.40;;
70406;SDS011;57821;52.202;0.154;2022-10-18T16:38:47;8.35;;;1.48;;
70406;SDS011;57821;52.202;0.154;2022-10-18T16:41:14;8.48;;;1.58;;
70406;SDS011;57821;52.202;0.154;2022-10-18T16:43:42;7.03;;;0.90;;
70406;SDS011;57821;52.202;0.154;2022-10-18T16:46:26;8.35;;;1.20;;
70406;SDS011;57821;52.202;0.154;2022-10-18T16:48:53;5.15;;;1.10;;
70406;SDS011;57821;52.202;0.154;2022-10-18T16:51:20;6.45;;;1.30;;
70406;SDS011;57821;52.202;0.154;2022-10-18T16:53:47;8.00;;;1.30;;
70406;SDS011;57821;52.202;0.154;2022-10-18T16:56:15;11.00;;;1.48;;
70406;SDS011;57821;52.202;0.154;2022-10-18T16:58:44;5.53;;;1.40;;
70406;SDS011;57821;52.202;0.154;2022-10-18T17:01:12;6.38;;;1.13;;
70406;SDS011;57821;52.202;0.154;2022-10-18T17:03:40;6.63;;;1.10;;
70406;SDS011;57821;52.202;0.154;2022-10-18T17:06:10;14.32;;;1.35;;
70406;SDS011;57821;52.202;0.154;2022-10-18T17:08:43;7.32;;;1.25;;
70406;SDS011;57821;52.202;0.154;2022-10-18T17:11:10;6.82;;;1.65;;
70406;SDS011;57821;52.202;0.154;2022-10-18T17:13:38;10.52;;;2.05;;
70406;SDS011;57821;52.202;0.154;2022-10-18T17:16:05;7.20;;;2.40;;
70406;SDS011;57821;52.202;0.154;2022-10-18T17:18:44;6.75;;;2.13;;
70406;SDS011;57821;52.202;0.154;2022-10-18T17:21:10;7.15;;;2.83;;
70406;SDS011;57821;52.202;0.154;2022-10-18T17:23:37;11.43;;;3.50;;
70406;SDS011;57821;52.202;0.154;2022-10-18T17:26:03;15.93;;;6.28;;
70406;SDS011;57821;52.202;0.154;2022-10-18T17:28:53;17.80;;;9.88;;
70406;SDS011;57821;52.202;0.154;2022-10-18T17:31:22;18.98;;;9.50;;
70406;SDS011;57821;52.202;0.154;2022-10-18T17:33:48;15.90;;;8.13;;
70406;SDS011;57821;52.202;0.154;2022-10-18T17:36:15;15.70;;;7.70;;
70406;SDS011;57821;52.202;0.154;2022-10-18T17:38:41;23.45;;;15.77;;
70406;SDS011;57821;52.202;0.154;2022-10-18T17:41:08;22.48;;;15.15;;
70406;SDS011;57821;52.202;0.154;2022-10-18T17:43:36;16.00;;;10.30;;
70406;SDS011;57821;52.202;0.154;2022-10-18T17:46:10;12.85;;;6.38;;
70406;SDS011;57821;52.202;0.154;2022-10-18T17:48:37;10.05;;;4.13;;
70406;SDS011;57821;52.202;0.154;2022-10-18T17:51:07;16.40;;;5.15;;